createdAt,value
2019-06-15T00:00:16.626Z,61.03
2019-06-15T00:02:47.128Z,61.52
2019-06-15T00:05:16.654Z,62.06
2019-06-15T00:07:46.309Z,62.62
2019-06-15T00:10:15.893Z,62.85
2019-06-15T00:12:45.426Z,62.56
2019-06-15T00:15:15.535Z,62.61
2019-06-15T00:17:45.039Z,62.36
2019-06-15T00:20:14.781Z,62.59
2019-06-15T00:22:44.321Z,62.28
2019-06-15T00:25:14.189Z,62.41
2019-06-15T00:27:43.727Z,61.84
2019-06-15T00:30:13.331Z,62.55
2019-06-15T00:32:42.855Z,61.43
2019-06-15T00:35:12.471Z,62.13
2019-06-15T00:37:41.995Z,62.29
2019-06-15T00:40:13.259Z,62.21
2019-06-15T00:42:42.795Z,62.31
2019-06-15T00:45:12.719Z,62.28
2019-06-15T00:47:42.324Z,61.75
2019-06-15T00:50:11.945Z,61.88
2019-06-15T00:52:41.460Z,61.76
2019-06-15T00:55:11.084Z,61.63
2019-06-15T00:57:40.613Z,61.93
2019-06-15T01:00:10.728Z,61.50
2019-06-15T01:02:40.258Z,61.58
2019-06-15T01:05:09.873Z,61.98
2019-06-15T01:07:39.405Z,62.48
2019-06-15T01:10:09.374Z,62.76
2019-06-15T01:12:38.931Z,62.62
2019-06-15T01:15:08.822Z,62.56
2019-06-15T01:17:38.420Z,62.97
2019-06-15T01:20:08.715Z,63.10
2019-06-15T01:22:38.239Z,63.21
2019-06-15T01:25:08.518Z,64.29
2019-06-15T01:27:38.383Z,64.99
2019-06-15T01:30:09.347Z,65.31
2019-06-15T01:32:38.946Z,66.54
2019-06-15T01:35:08.733Z,68.28
2019-06-15T01:37:38.249Z,69.45
2019-06-15T01:40:08.440Z,69.59
2019-06-15T01:42:38.005Z,70.11
2019-06-15T01:45:07.859Z,70.66
2019-06-15T01:47:37.445Z,70.77
2019-06-15T01:50:07.825Z,70.52
2019-06-15T01:52:37.363Z,70.55
2019-06-15T01:55:20.037Z,70.60
2019-06-15T01:57:38.295Z,71.04
2019-06-15T02:00:08.672Z,70.90
2019-06-15T02:02:39.263Z,70.77
2019-06-15T02:05:08.848Z,70.65
2019-06-15T02:07:38.376Z,70.21
2019-06-15T02:10:09.323Z,69.99
2019-06-15T02:12:38.851Z,69.13
2019-06-15T02:15:08.460Z,69.56
2019-06-15T02:17:37.991Z,69.48
2019-06-15T02:20:07.759Z,69.19
2019-06-15T02:22:37.280Z,68.92
2019-06-15T02:25:07.379Z,68.94
2019-06-15T02:27:37.079Z,68.60
2019-06-15T02:30:06.894Z,68.87
2019-06-15T02:32:36.433Z,68.77
2019-06-15T02:35:06.582Z,68.14
2019-06-15T02:37:37.086Z,68.35
2019-06-15T02:40:08.136Z,68.50
2019-06-15T02:42:37.741Z,68.12
2019-06-15T02:45:08.255Z,68.08
2019-06-15T02:47:37.773Z,68.17
2019-06-15T02:50:07.657Z,68.12
2019-06-15T02:52:37.412Z,68.10
2019-06-15T02:55:08.365Z,68.48
2019-06-15T02:57:37.961Z,68.15
2019-06-15T03:00:07.745Z,68.55
2019-06-15T03:02:37.296Z,68.50
2019-06-15T03:05:07.388Z,68.68
2019-06-15T03:07:36.994Z,68.53
2019-06-15T03:10:07.023Z,68.50
2019-06-15T03:12:36.690Z,68.83
2019-06-15T03:15:07.141Z,68.53
2019-06-15T03:17:36.669Z,69.06
2019-06-15T03:20:06.322Z,68.83
2019-06-15T03:22:35.800Z,68.65
2019-06-15T03:25:05.641Z,68.72
2019-06-15T03:27:35.177Z,68.75
2019-06-15T03:30:05.167Z,68.64
2019-06-15T03:32:34.778Z,68.58
2019-06-15T03:35:04.747Z,68.52
2019-06-15T03:37:34.271Z,68.44
2019-06-15T03:40:04.171Z,68.62
2019-06-15T03:42:33.704Z,69.02
2019-06-15T03:45:03.221Z,68.66
2019-06-15T03:47:32.758Z,68.90
2019-06-15T03:50:02.286Z,69.05
2019-06-15T03:52:31.818Z,68.66
2019-06-15T03:55:01.353Z,68.70
2019-06-15T03:57:30.887Z,68.79
2019-06-15T04:00:00.630Z,68.55
2019-06-15T04:02:30.330Z,68.94
2019-06-15T04:04:59.855Z,68.99
2019-06-15T04:07:29.387Z,68.56
2019-06-15T04:09:58.995Z,68.95
2019-06-15T04:12:28.531Z,68.82
2019-06-15T04:14:58.054Z,69.03
2019-06-15T04:17:27.601Z,69.07
2019-06-15T04:19:57.153Z,68.78
2019-06-15T04:22:26.675Z,68.88
2019-06-15T04:24:57.163Z,69.12
2019-06-15T04:27:26.678Z,68.89
2019-06-15T04:29:56.220Z,68.71
2019-06-15T04:32:25.752Z,69.16
2019-06-15T04:34:55.275Z,68.81
2019-06-15T04:37:24.809Z,68.48
2019-06-15T04:39:54.333Z,68.90
2019-06-15T04:42:23.877Z,68.52
2019-06-15T04:44:53.417Z,68.30
2019-06-15T04:47:22.937Z,68.56
2019-06-15T04:49:52.458Z,68.87
2019-06-15T04:52:21.973Z,69.49
2019-06-15T04:54:51.502Z,69.44
2019-06-15T04:57:21.294Z,69.71
2019-06-15T04:59:50.835Z,69.44
2019-06-15T05:02:20.371Z,69.64
2019-06-15T05:04:49.898Z,69.98
2019-06-15T05:07:19.431Z,70.36
2019-06-15T05:09:48.959Z,70.08
2019-06-15T05:12:18.746Z,70.67
2019-06-15T05:14:48.360Z,72.06
2019-06-15T05:17:17.869Z,72.05
2019-06-15T05:19:47.404Z,72.04
2019-06-15T05:22:16.966Z,72.49
2019-06-15T05:24:46.573Z,72.09
2019-06-15T05:27:16.162Z,71.80
2019-06-15T05:29:45.702Z,71.09
2019-06-15T05:32:15.231Z,71.00
2019-06-15T05:34:45.723Z,70.74
2019-06-15T05:37:15.352Z,70.93
2019-06-15T05:39:44.898Z,70.84
2019-06-15T05:42:14.418Z,71.36
2019-06-15T05:44:43.995Z,71.64
2019-06-15T05:47:13.512Z,71.00
2019-06-15T05:49:43.059Z,70.78
2019-06-15T05:52:12.594Z,70.62
2019-06-15T05:54:42.133Z,70.30
2019-06-15T05:57:21.207Z,70.74
2019-06-15T05:59:42.908Z,70.61
2019-06-15T06:02:12.443Z,70.32
2019-06-15T06:04:41.957Z,70.29
2019-06-15T06:07:11.491Z,70.22
2019-06-15T06:09:41.015Z,70.44
2019-06-15T06:12:10.547Z,70.41
2019-06-15T06:14:40.092Z,70.02
2019-06-15T06:17:09.640Z,69.85
2019-06-15T06:19:39.189Z,69.89
2019-06-15T06:22:08.737Z,69.47
2019-06-15T06:24:38.296Z,69.77
2019-06-15T06:27:07.835Z,69.17
2019-06-15T06:29:37.370Z,69.16
2019-06-15T06:32:06.914Z,67.99
2019-06-15T06:34:36.511Z,67.27
2019-06-15T06:37:06.054Z,66.35
2019-06-15T06:39:35.611Z,66.26
2019-06-15T06:42:05.218Z,64.47
2019-06-15T06:44:34.746Z,62.72
2019-06-15T06:47:04.323Z,63.05
2019-06-15T06:49:33.862Z,63.55
2019-06-15T06:52:03.424Z,62.83
2019-06-15T06:54:33.055Z,63.31
2019-06-15T06:57:02.582Z,62.69
2019-06-15T06:59:32.114Z,62.74
2019-06-15T07:02:01.664Z,62.26
2019-06-15T07:04:31.180Z,63.11
2019-06-15T07:07:00.722Z,63.83
2019-06-15T07:09:30.260Z,63.74
2019-06-15T07:11:59.808Z,62.55
2019-06-15T07:14:30.457Z,62.95
2019-06-15T07:17:00.006Z,62.80
2019-06-15T07:19:30.622Z,63.91
2019-06-15T07:22:00.218Z,63.20
2019-06-15T07:24:29.773Z,62.98
2019-06-15T07:27:00.280Z,61.98
2019-06-15T07:29:29.820Z,61.32
2019-06-15T07:31:59.409Z,61.09
2019-06-15T07:34:29.007Z,60.97
2019-06-15T07:37:01.494Z,61.35
2019-06-15T07:39:29.782Z,60.30
2019-06-15T07:41:59.337Z,59.42
2019-06-15T07:44:28.906Z,60.83
2019-06-15T07:46:58.443Z,60.31
2019-06-15T07:49:28.018Z,58.51
2019-06-15T07:51:57.838Z,58.37
2019-06-15T07:54:27.366Z,58.57
2019-06-15T07:56:56.965Z,58.58
2019-06-15T07:59:26.481Z,58.11
2019-06-15T08:01:56.145Z,57.91
2019-06-15T08:04:38.555Z,58.30
2019-06-15T08:07:08.869Z,58.15
2019-06-15T08:09:38.977Z,58.20
2019-06-15T08:12:09.111Z,57.74
2019-06-15T08:14:39.240Z,58.48
2019-06-15T08:17:09.628Z,58.42
2019-06-15T08:19:39.743Z,58.20
2019-06-15T08:22:09.880Z,58.48
2019-06-15T08:24:39.993Z,58.17
2019-06-15T08:27:10.145Z,57.66
2019-06-15T08:29:40.256Z,58.44
2019-06-15T08:32:11.594Z,58.79
2019-06-15T08:34:41.700Z,58.88
2019-06-15T08:37:11.822Z,59.12
2019-06-15T08:39:41.938Z,58.31
2019-06-15T08:42:12.077Z,57.67
2019-06-15T08:44:43.171Z,57.98
2019-06-15T08:47:13.320Z,58.74
2019-06-15T08:49:43.459Z,58.59
2019-06-15T08:52:13.617Z,58.78
2019-06-15T08:54:43.764Z,59.47
2019-06-15T08:57:13.943Z,59.84
2019-06-15T08:59:44.078Z,60.63
2019-06-15T09:02:14.212Z,61.00
2019-06-15T09:04:44.348Z,60.39
2019-06-15T09:07:14.530Z,59.82
2019-06-15T09:09:44.720Z,60.52
2019-06-15T09:12:14.873Z,60.53
2019-06-15T09:14:45.045Z,60.58
2019-06-15T09:17:15.259Z,60.61
2019-06-15T09:19:46.347Z,60.36
2019-06-15T09:22:16.501Z,60.69
2019-06-15T09:24:46.608Z,60.57
2019-06-15T09:27:16.733Z,60.60
2019-06-15T09:29:47.090Z,61.30
2019-06-15T09:32:17.239Z,61.37
2019-06-15T09:34:47.504Z,61.57
2019-06-15T09:37:17.661Z,61.09
2019-06-15T09:39:47.802Z,61.07
2019-06-15T09:42:17.933Z,61.83
2019-06-15T09:44:48.080Z,61.31
2019-06-15T09:47:18.195Z,60.83
2019-06-15T09:49:48.311Z,61.01
2019-06-15T09:52:18.523Z,61.17
2019-06-15T09:54:48.654Z,60.99
2019-06-15T09:57:18.778Z,61.02
2019-06-15T09:59:48.888Z,61.32
2019-06-15T10:02:19.119Z,61.62
2019-06-15T10:04:49.341Z,62.09
2019-06-15T10:07:19.560Z,62.88
2019-06-15T10:09:49.682Z,63.26
2019-06-15T10:12:20.069Z,63.78
2019-06-15T10:14:51.178Z,63.81
2019-06-15T10:17:21.325Z,63.48
2019-06-15T10:19:51.505Z,63.28
2019-06-15T10:22:21.642Z,63.09
2019-06-15T10:24:51.834Z,62.20
2019-06-15T10:27:21.995Z,62.25
2019-06-15T10:29:52.167Z,61.83
2019-06-15T10:32:22.346Z,61.74
2019-06-15T10:34:52.512Z,61.40
2019-06-15T10:37:22.676Z,61.26
2019-06-15T10:39:52.743Z,61.18
2019-06-15T10:42:22.985Z,61.19
2019-06-15T10:44:53.120Z,61.55
2019-06-15T10:47:23.280Z,61.75
2019-06-15T10:49:53.438Z,61.99
2019-06-15T10:52:23.598Z,62.09
2019-06-15T10:54:53.770Z,62.55
2019-06-15T10:57:23.929Z,61.88
2019-06-15T10:59:57.722Z,62.49
2019-06-15T11:02:25.948Z,61.33
2019-06-15T11:04:56.079Z,61.45
2019-06-15T11:07:26.231Z,61.05
2019-06-15T11:09:56.497Z,61.43
2019-06-15T11:12:26.974Z,61.39
2019-06-15T11:14:57.185Z,61.05
2019-06-15T11:17:28.415Z,61.07
2019-06-15T11:19:58.537Z,61.49
2019-06-15T11:22:28.698Z,60.29
2019-06-15T11:24:58.833Z,59.89
2019-06-15T11:27:28.991Z,60.25
2019-06-15T11:30:12.519Z,59.74
2019-06-15T11:32:30.933Z,59.84
2019-06-15T11:35:01.330Z,60.26
2019-06-15T11:37:32.559Z,60.33
2019-06-15T11:40:02.688Z,60.56
2019-06-15T11:42:32.830Z,60.59
2019-06-15T11:45:03.029Z,60.17
2019-06-15T11:47:33.172Z,60.25
2019-06-15T11:50:03.377Z,59.94
2019-06-15T11:52:33.484Z,59.69
2019-06-15T11:55:04.678Z,59.31
2019-06-15T11:57:34.806Z,58.39
2019-06-15T12:00:05.870Z,57.54
2019-06-15T12:02:36.035Z,57.41
2019-06-15T12:05:06.337Z,56.05
2019-06-15T12:07:36.484Z,56.09
2019-06-15T12:10:07.713Z,55.82
2019-06-15T12:12:37.880Z,55.99
2019-06-15T12:15:08.771Z,56.34
2019-06-15T12:17:38.883Z,55.68
2019-06-15T12:20:09.152Z,55.78
2019-06-15T12:22:39.435Z,55.00
2019-06-15T12:25:10.065Z,54.64
2019-06-15T12:27:40.226Z,55.13
2019-06-15T12:30:11.258Z,54.11
2019-06-15T12:32:41.419Z,53.88
2019-06-15T12:35:11.821Z,52.72
2019-06-15T12:37:42.220Z,53.38
2019-06-15T12:40:12.386Z,53.74
2019-06-15T12:42:42.630Z,54.35
2019-06-15T12:45:13.154Z,54.57
2019-06-15T12:47:43.432Z,53.76
2019-06-15T12:50:14.015Z,53.46
2019-06-15T12:52:44.334Z,53.08
2019-06-15T12:55:14.704Z,53.26
2019-06-15T12:57:45.413Z,53.26
2019-06-15T13:00:16.333Z,52.03
2019-06-15T13:02:46.751Z,52.11
2019-06-15T13:05:16.924Z,53.01
2019-06-15T13:07:47.209Z,53.47
2019-06-15T13:10:18.174Z,52.91
2019-06-15T13:12:49.389Z,53.36
2019-06-15T13:15:19.588Z,53.87
2019-06-15T13:17:49.753Z,54.04
2019-06-15T13:20:21.202Z,54.16
2019-06-15T13:22:51.420Z,54.30
2019-06-15T13:25:21.557Z,54.41
2019-06-15T13:27:51.675Z,54.69
2019-06-15T13:30:29.981Z,55.10
2019-06-15T13:33:00.063Z,55.09
2019-06-15T13:35:30.301Z,54.69
2019-06-15T13:38:00.478Z,55.50
2019-06-15T13:40:30.683Z,55.25
2019-06-15T13:43:00.781Z,54.26
2019-06-15T13:45:30.933Z,54.99
2019-06-15T13:48:01.051Z,54.56
2019-06-15T13:50:31.248Z,54.21
2019-06-15T13:53:01.491Z,55.13
2019-06-15T13:55:31.624Z,55.43
2019-06-15T13:58:01.779Z,56.21
2019-06-15T14:00:31.943Z,56.20
2019-06-15T14:03:02.070Z,55.50
2019-06-15T14:05:44.287Z,55.01
2019-06-15T14:08:15.976Z,55.29
2019-06-15T14:10:46.111Z,55.09
2019-06-15T14:13:38.635Z,53.99
2019-06-15T14:16:08.755Z,54.64
2019-06-15T14:18:39.537Z,54.51
2019-06-15T14:21:09.624Z,54.30
2019-06-15T14:23:39.765Z,53.00
2019-06-15T14:26:09.895Z,53.72
2019-06-15T14:28:40.045Z,54.32
2019-06-15T14:31:11.145Z,54.35
2019-06-15T14:33:41.247Z,53.85
2019-06-15T14:36:11.364Z,53.14
2019-06-15T14:38:41.521Z,52.76
2019-06-15T14:41:11.602Z,52.49
2019-06-15T14:43:41.724Z,51.60
2019-06-15T14:46:11.839Z,52.31
2019-06-15T14:48:42.095Z,52.52
2019-06-15T14:51:12.273Z,51.15
2019-06-15T14:53:49.851Z,51.48
2019-06-15T14:56:16.061Z,51.06
2019-06-15T14:58:47.415Z,50.66
2019-06-15T15:01:18.123Z,50.54
2019-06-15T15:03:49.263Z,49.93
2019-06-15T15:06:19.469Z,50.72
2019-06-15T15:08:49.787Z,50.56
2019-06-15T15:11:20.031Z,48.81
2019-06-15T15:13:50.146Z,48.47
2019-06-15T15:16:20.383Z,49.11
2019-06-15T15:18:50.655Z,49.54
2019-06-15T15:21:20.994Z,49.77
2019-06-15T15:23:51.154Z,48.97
2019-06-15T15:26:21.437Z,49.32
2019-06-15T15:28:51.824Z,49.51
2019-06-15T15:31:22.012Z,49.30
2019-06-15T15:33:52.294Z,49.24
2019-06-15T15:36:22.452Z,49.51
2019-06-15T15:38:52.565Z,48.22
2019-06-15T15:41:26.432Z,47.35
2019-06-15T15:43:55.810Z,47.39
2019-06-15T15:46:25.940Z,47.62
2019-06-15T15:48:56.884Z,48.40
2019-06-15T15:51:27.022Z,48.68
2019-06-15T15:53:57.144Z,47.58
2019-06-15T15:56:27.523Z,47.31
2019-06-15T15:58:57.634Z,47.03
2019-06-15T16:01:27.755Z,47.74
2019-06-15T16:03:57.861Z,47.33
2019-06-15T16:06:28.950Z,48.07
2019-06-15T16:08:59.077Z,48.25
2019-06-15T16:11:29.184Z,47.45
2019-06-15T16:13:59.443Z,48.25
2019-06-15T16:16:29.943Z,46.91
2019-06-15T16:19:00.052Z,47.59
2019-06-15T16:21:30.382Z,47.73
2019-06-15T16:24:00.479Z,48.47
2019-06-15T16:26:31.030Z,47.17
2019-06-15T16:29:01.339Z,47.38
2019-06-15T16:31:31.499Z,46.84
2019-06-15T16:34:01.620Z,46.30
2019-06-15T16:36:31.729Z,46.24
2019-06-15T16:39:01.908Z,46.22
2019-06-15T16:41:36.251Z,47.05
2019-06-15T16:44:07.192Z,46.39
2019-06-15T16:46:37.560Z,46.34
2019-06-15T16:49:07.662Z,46.16
2019-06-15T16:51:37.778Z,46.06
2019-06-15T16:54:07.926Z,45.94
2019-06-15T16:56:38.044Z,45.82
2019-06-15T16:59:08.158Z,45.94
2019-06-15T17:01:38.399Z,46.07
2019-06-15T17:04:09.019Z,45.00
2019-06-15T17:06:40.817Z,45.52
2019-06-15T17:09:11.041Z,44.47
2019-06-15T17:11:41.158Z,45.42
2019-06-15T17:14:11.265Z,44.78
2019-06-15T17:16:41.451Z,45.22
2019-06-15T17:19:11.572Z,45.63
2019-06-15T17:21:41.667Z,45.06
2019-06-15T17:24:11.799Z,44.99
2019-06-15T17:26:41.907Z,45.75
2019-06-15T17:29:12.030Z,45.64
2019-06-15T17:31:42.159Z,45.66
2019-06-15T17:34:12.291Z,44.70
2019-06-15T17:36:42.418Z,44.97
2019-06-15T17:39:12.604Z,45.07
2019-06-15T17:41:42.791Z,45.11
2019-06-15T17:44:12.967Z,45.22
2019-06-15T17:46:46.445Z,45.42
2019-06-15T17:49:17.902Z,46.02
2019-06-15T17:51:47.706Z,46.02
2019-06-15T17:54:27.359Z,45.78
2019-06-15T17:56:57.653Z,45.86
2019-06-15T17:59:27.767Z,46.28
2019-06-15T18:01:57.913Z,45.97
2019-06-15T18:04:28.022Z,46.21
2019-06-15T18:06:58.190Z,46.38
2019-06-15T18:09:29.269Z,46.06
2019-06-15T18:12:08.128Z,46.35
2019-06-15T18:14:40.389Z,45.56
2019-06-15T18:17:25.966Z,45.77
2019-06-15T18:20:01.601Z,46.30
2019-06-15T18:22:36.115Z,45.78
2019-06-15T18:25:06.445Z,45.95
2019-06-15T18:27:37.432Z,46.51
2019-06-15T18:30:07.850Z,45.89
2019-06-15T18:32:38.135Z,45.98
2019-06-15T18:35:08.417Z,46.61
2019-06-15T18:37:39.601Z,46.04
2019-06-15T18:40:09.931Z,46.33
2019-06-15T18:42:40.130Z,46.92
2019-06-15T18:45:10.428Z,47.33
2019-06-15T18:47:43.663Z,47.38
2019-06-15T18:50:17.096Z,47.53
2019-06-15T18:52:47.352Z,47.68
2019-06-15T18:55:18.101Z,47.04
2019-06-15T18:57:48.256Z,47.52
2019-06-15T19:00:18.586Z,47.56
2019-06-15T19:02:48.705Z,48.07
2019-06-15T19:05:19.195Z,47.26
2019-06-15T19:07:49.310Z,47.68
2019-06-15T19:10:29.929Z,47.91
2019-06-15T19:13:00.160Z,48.22
2019-06-15T19:15:30.390Z,48.30
2019-06-15T19:18:08.160Z,48.19
2019-06-15T19:20:38.210Z,48.33
2019-06-15T19:23:08.336Z,48.47
2019-06-15T19:25:38.429Z,47.92
2019-06-15T19:28:08.558Z,48.17
2019-06-15T19:30:38.660Z,48.54
2019-06-15T19:33:08.772Z,48.37
2019-06-15T19:35:38.999Z,48.15
2019-06-15T19:38:09.198Z,48.56
2019-06-15T19:40:39.364Z,48.57
2019-06-15T19:43:09.489Z,48.63
2019-06-15T19:45:39.615Z,48.87
2019-06-15T19:48:13.096Z,49.07
2019-06-15T19:50:43.235Z,48.99
2019-06-15T19:53:13.377Z,49.02
2019-06-15T19:55:46.504Z,49.42
2019-06-15T19:58:17.147Z,49.37
2019-06-15T20:00:48.953Z,49.55
2019-06-15T20:03:19.056Z,49.96
2019-06-15T20:05:49.249Z,49.95
2019-06-15T20:08:19.388Z,50.13
2019-06-15T20:10:51.272Z,50.12
2019-06-15T20:13:21.561Z,50.21
2019-06-15T20:15:51.649Z,50.18
2019-06-15T20:18:21.778Z,50.20
2019-06-15T20:20:51.861Z,50.29
2019-06-15T20:23:22.006Z,50.50
2019-06-15T20:25:52.115Z,50.21
2019-06-15T20:28:22.344Z,50.54
2019-06-15T20:30:52.476Z,50.59
2019-06-15T20:33:22.559Z,50.75
2019-06-15T20:35:52.662Z,50.80
2019-06-15T20:38:22.870Z,50.82
2019-06-15T20:40:52.978Z,51.03
2019-06-15T20:43:23.230Z,51.06
2019-06-15T20:45:56.049Z,50.86
2019-06-15T20:48:26.848Z,50.69
2019-06-15T20:50:57.161Z,51.05
2019-06-15T20:53:27.261Z,51.11
2019-06-15T20:55:57.368Z,51.03
2019-06-15T20:58:27.467Z,51.26
2019-06-15T21:00:57.588Z,51.14
2019-06-15T21:03:27.699Z,51.12
2019-06-15T21:05:57.821Z,51.29
2019-06-15T21:08:27.909Z,51.22
2019-06-15T21:10:58.000Z,51.29
2019-06-15T21:13:28.168Z,51.26
2019-06-15T21:15:58.287Z,51.45
2019-06-15T21:18:28.381Z,51.74
2019-06-15T21:20:59.538Z,51.73
2019-06-15T21:23:29.634Z,51.87
2019-06-15T21:25:59.810Z,52.09
2019-06-15T21:28:29.918Z,52.35
2019-06-15T21:31:00.115Z,52.33
2019-06-15T21:33:30.204Z,52.51
2019-06-15T21:36:00.321Z,52.71
2019-06-15T21:38:30.420Z,52.92
2019-06-15T21:41:00.544Z,53.11
2019-06-15T21:43:30.647Z,53.20
2019-06-15T21:46:00.768Z,53.11
2019-06-15T21:48:30.847Z,53.16
2019-06-15T21:51:00.974Z,53.19
2019-06-15T21:53:31.104Z,53.35
2019-06-15T21:56:01.526Z,53.65
2019-06-15T21:58:31.627Z,53.70
2019-06-15T22:01:21.300Z,53.88
2019-06-15T22:03:51.408Z,53.93
2019-06-15T22:06:21.503Z,54.15
2019-06-15T22:08:51.611Z,54.33
2019-06-15T22:11:21.716Z,54.22
2019-06-15T22:13:51.829Z,54.34
2019-06-15T22:16:21.927Z,54.45
2019-06-15T22:18:52.013Z,54.71
2019-06-15T22:21:24.870Z,54.43
2019-06-15T22:23:55.901Z,54.59
2019-06-15T22:26:26.680Z,55.09
2019-06-15T22:28:57.112Z,55.15
2019-06-15T22:31:27.489Z,55.29
2019-06-15T22:33:57.588Z,55.06
2019-06-15T22:36:28.567Z,55.45
2019-06-15T22:38:58.768Z,55.31
2019-06-15T22:41:28.878Z,55.66
2019-06-15T22:43:58.988Z,56.38
2019-06-15T22:46:29.103Z,56.54
2019-06-15T22:48:59.196Z,56.72
2019-06-15T22:51:29.292Z,56.26
2019-06-15T22:53:59.384Z,56.13
2019-06-15T22:56:29.508Z,56.32
2019-06-15T22:58:59.596Z,56.13
2019-06-15T23:01:29.735Z,56.08
2019-06-15T23:04:00.807Z,56.17
2019-06-15T23:06:37.466Z,56.18
2019-06-15T23:09:02.716Z,56.37
2019-06-15T23:11:35.975Z,56.63
2019-06-15T23:14:06.782Z,56.34
2019-06-15T23:16:37.118Z,56.32
2019-06-15T23:19:07.906Z,56.42
2019-06-15T23:21:39.067Z,57.03
2019-06-15T23:24:09.164Z,57.12
2019-06-15T23:26:39.274Z,57.00
2019-06-15T23:29:09.387Z,57.54
2019-06-15T23:31:39.493Z,57.75
2019-06-15T23:34:09.593Z,57.67
2019-06-15T23:36:54.116Z,58.12
2019-06-15T23:39:16.314Z,58.20
2019-06-15T23:41:46.938Z,58.35
2019-06-15T23:44:17.187Z,58.32
2019-06-15T23:46:47.287Z,58.84
2019-06-15T23:49:17.384Z,58.47
2019-06-15T23:51:47.497Z,58.40
2019-06-15T23:54:17.599Z,58.07
2019-06-15T23:56:47.709Z,58.78
2019-06-15T23:59:18.663Z,58.93
